createdAt,value
2019-03-16T00:00:21.998Z,11.30
2019-03-16T00:02:49.922Z,11.40
2019-03-16T00:05:17.235Z,11.50
2019-03-16T00:07:44.499Z,11.40
2019-03-16T00:10:11.740Z,11.40
2019-03-16T00:12:39.016Z,11.40
2019-03-16T00:15:06.314Z,11.50
2019-03-16T00:17:34.631Z,11.40
2019-03-16T00:20:01.908Z,11.50
2019-03-16T00:22:29.179Z,11.60
2019-03-16T00:24:56.905Z,11.50
2019-03-16T00:27:24.291Z,11.60
2019-03-16T00:29:51.540Z,11.60
2019-03-16T00:32:18.881Z,11.60
2019-03-16T00:34:46.148Z,11.60
2019-03-16T00:37:13.385Z,11.60
2019-03-16T00:39:40.614Z,11.50
2019-03-16T00:42:07.863Z,11.50
2019-03-16T00:44:35.206Z,11.50
2019-03-16T00:47:02.464Z,11.60
2019-03-16T00:49:29.755Z,11.60
2019-03-16T00:51:57.007Z,11.60
2019-03-16T00:54:24.256Z,11.60
2019-03-16T00:56:51.519Z,11.50
2019-03-16T00:59:18.745Z,11.50
2019-03-16T01:01:45.984Z,11.70
2019-03-16T01:04:13.262Z,11.70
2019-03-16T01:06:40.499Z,11.60
2019-03-16T01:09:07.791Z,11.60
2019-03-16T01:11:35.090Z,11.60
2019-03-16T01:14:02.345Z,11.50
2019-03-16T01:16:29.600Z,11.60
2019-03-16T01:18:56.824Z,11.60
2019-03-16T01:21:24.072Z,11.60
2019-03-16T01:23:51.307Z,11.50
2019-03-16T01:26:18.559Z,11.60
2019-03-16T01:28:45.783Z,11.60
2019-03-16T01:31:13.003Z,11.60
2019-03-16T01:33:40.270Z,11.70
2019-03-16T01:36:07.536Z,11.60
2019-03-16T01:38:34.872Z,11.70
2019-03-16T01:41:02.125Z,11.70
2019-03-16T01:43:29.401Z,11.70
2019-03-16T01:45:56.639Z,11.60
2019-03-16T01:48:24.563Z,11.70
2019-03-16T01:50:52.003Z,11.70
2019-03-16T01:53:19.252Z,11.60
2019-03-16T01:55:46.573Z,11.60
2019-03-16T01:58:13.919Z,11.60
2019-03-16T02:00:41.168Z,11.60
2019-03-16T02:03:08.432Z,11.60
2019-03-16T02:05:35.697Z,11.70
2019-03-16T02:08:03.033Z,11.70
2019-03-16T02:10:30.284Z,11.70
2019-03-16T02:12:57.531Z,11.70
2019-03-16T02:15:24.779Z,11.60
2019-03-16T02:17:52.043Z,11.60
2019-03-16T02:20:19.379Z,11.60
2019-03-16T02:22:46.643Z,11.70
2019-03-16T02:25:13.891Z,11.70
2019-03-16T02:27:41.119Z,11.70
2019-03-16T02:30:08.362Z,11.60
2019-03-16T02:32:35.749Z,11.70
2019-03-16T02:35:03.617Z,11.50
2019-03-16T02:37:30.962Z,11.40
2019-03-16T02:39:58.203Z,11.50
2019-03-16T02:42:25.466Z,11.50
2019-03-16T02:44:52.721Z,11.50
2019-03-16T02:47:19.956Z,11.40
2019-03-16T02:49:47.219Z,11.30
2019-03-16T02:52:14.456Z,11.10
2019-03-16T02:54:41.737Z,11.10
2019-03-16T02:57:08.959Z,11.10
2019-03-16T02:59:36.195Z,10.80
2019-03-16T03:02:03.447Z,10.70
2019-03-16T03:04:30.707Z,10.60
2019-03-16T03:06:57.945Z,10.40
2019-03-16T03:09:25.185Z,10.60
2019-03-16T03:11:52.549Z,10.60
2019-03-16T03:14:20.241Z,10.30
2019-03-16T03:16:47.489Z,10.10
2019-03-16T03:19:14.759Z,10.00
2019-03-16T03:21:42.128Z,9.90
2019-03-16T03:24:09.448Z,10.00
2019-03-16T03:26:36.690Z,10.00
2019-03-16T03:29:03.931Z,9.80
2019-03-16T03:31:31.203Z,9.90
2019-03-16T03:34:02.239Z,9.90
2019-03-16T03:36:27.692Z,9.90
2019-03-16T03:38:54.984Z,10.00
2019-03-16T03:41:22.288Z,10.00
2019-03-16T03:43:49.535Z,9.80
2019-03-16T03:46:16.811Z,9.70
2019-03-16T03:48:44.039Z,9.60
2019-03-16T03:51:11.265Z,9.70
2019-03-16T03:53:41.106Z,9.70
2019-03-16T03:56:07.682Z,9.60
2019-03-16T03:58:34.909Z,9.60
2019-03-16T04:01:02.212Z,9.80
2019-03-16T04:03:29.468Z,9.80
2019-03-16T04:05:56.717Z,9.80
2019-03-16T04:08:23.971Z,9.80
2019-03-16T04:10:51.303Z,9.80
2019-03-16T04:13:18.571Z,9.70
2019-03-16T04:15:45.901Z,9.70
2019-03-16T04:18:13.156Z,9.80
2019-03-16T04:20:40.396Z,9.70
2019-03-16T04:23:17.082Z,9.80
2019-03-16T04:25:44.333Z,9.70
2019-03-16T04:28:31.215Z,9.70
2019-03-16T04:30:58.463Z,9.70
2019-03-16T04:33:25.694Z,9.70
2019-03-16T04:35:52.942Z,9.80
2019-03-16T04:38:20.188Z,9.80
2019-03-16T04:40:47.455Z,9.60
2019-03-16T04:43:20.743Z,9.70
2019-03-16T04:45:48.093Z,9.80
2019-03-16T04:48:15.347Z,9.70
2019-03-16T04:50:42.576Z,9.80
2019-03-16T04:53:09.828Z,9.90
2019-03-16T04:55:37.102Z,9.90
2019-03-16T04:58:04.335Z,10.10
2019-03-16T05:00:31.570Z,10.60
2019-03-16T05:03:08.144Z,10.50
2019-03-16T05:05:34.028Z,10.60
2019-03-16T05:08:01.309Z,10.70
2019-03-16T05:10:28.611Z,10.90
2019-03-16T05:12:55.851Z,11.00
2019-03-16T05:15:23.472Z,10.90
2019-03-16T05:17:50.703Z,11.00
2019-03-16T05:20:27.347Z,11.00
2019-03-16T05:22:54.571Z,11.00
2019-03-16T05:25:21.834Z,11.10
2019-03-16T05:27:49.099Z,11.00
2019-03-16T05:30:16.426Z,11.00
2019-03-16T05:32:43.745Z,11.00
2019-03-16T05:35:11.095Z,11.00
2019-03-16T05:37:38.326Z,11.10
2019-03-16T05:40:05.796Z,11.10
2019-03-16T05:42:33.036Z,11.20
2019-03-16T05:45:00.389Z,11.10
2019-03-16T05:47:52.835Z,11.10
2019-03-16T05:50:20.091Z,11.20
2019-03-16T05:52:47.325Z,11.10
2019-03-16T05:55:14.555Z,11.20
2019-03-16T05:57:41.867Z,11.20
2019-03-16T06:00:10.034Z,11.20
2019-03-16T06:02:37.713Z,11.10
2019-03-16T06:05:10.343Z,11.30
2019-03-16T06:07:34.257Z,11.30
2019-03-16T06:10:01.532Z,11.20
2019-03-16T06:12:28.860Z,11.40
2019-03-16T06:14:56.084Z,11.20
2019-03-16T06:17:23.343Z,11.20
2019-03-16T06:19:50.599Z,11.30
2019-03-16T06:22:17.839Z,11.30
2019-03-16T06:24:45.095Z,11.30
2019-03-16T06:27:12.315Z,11.20
2019-03-16T06:29:39.635Z,11.30
2019-03-16T06:32:06.904Z,11.30
2019-03-16T06:34:34.259Z,11.30
2019-03-16T06:37:01.480Z,11.30
2019-03-16T06:39:28.720Z,11.30
2019-03-16T06:41:55.991Z,11.20
2019-03-16T06:44:23.273Z,11.30
2019-03-16T06:46:50.535Z,11.40
2019-03-16T06:49:42.410Z,11.40
2019-03-16T06:52:09.672Z,11.50
2019-03-16T06:54:36.907Z,11.40
2019-03-16T06:57:04.159Z,11.40
2019-03-16T06:59:32.437Z,11.40
2019-03-16T07:01:59.688Z,11.40
2019-03-16T07:04:26.950Z,11.20
2019-03-16T07:06:54.378Z,11.20
2019-03-16T07:09:21.652Z,11.10
2019-03-16T07:11:48.912Z,11.20
2019-03-16T07:14:16.499Z,11.10
2019-03-16T07:17:03.248Z,11.10
2019-03-16T07:19:33.698Z,11.20
2019-03-16T07:21:59.855Z,11.20
2019-03-16T07:24:27.547Z,11.20
2019-03-16T07:26:54.854Z,11.20
2019-03-16T07:29:22.216Z,11.20
2019-03-16T07:31:49.451Z,11.10
2019-03-16T07:34:16.691Z,11.20
2019-03-16T07:36:43.977Z,11.20
2019-03-16T07:39:11.293Z,11.20
2019-03-16T07:41:38.524Z,11.10
2019-03-16T07:44:05.800Z,11.10
2019-03-16T07:46:33.159Z,11.10
2019-03-16T07:49:00.425Z,11.20
2019-03-16T07:51:27.841Z,11.10
2019-03-16T07:53:55.075Z,11.20
2019-03-16T07:56:22.408Z,11.20
2019-03-16T07:58:49.795Z,11.20
2019-03-16T08:01:17.232Z,11.40
2019-03-16T08:03:44.535Z,11.40
2019-03-16T08:06:12.128Z,11.40
2019-03-16T08:08:39.890Z,11.40
2019-03-16T08:11:07.824Z,11.50
2019-03-16T08:13:35.506Z,11.60
2019-03-16T08:16:04.113Z,11.60
2019-03-16T08:18:31.750Z,11.60
2019-03-16T08:20:59.861Z,11.60
2019-03-16T08:23:29.061Z,11.60
2019-03-16T08:25:56.996Z,11.50
2019-03-16T08:28:25.232Z,11.50
2019-03-16T08:30:52.882Z,11.60
2019-03-16T08:33:20.519Z,11.50
2019-03-16T08:35:48.090Z,11.60
2019-03-16T08:38:16.120Z,11.50
2019-03-16T08:40:44.383Z,11.40
2019-03-16T08:45:58.744Z,11.50
2019-03-16T08:48:26.053Z,11.50
2019-03-16T08:50:53.929Z,11.40
2019-03-16T08:53:22.914Z,11.50
2019-03-16T08:55:50.369Z,11.50
2019-03-16T08:58:17.665Z,11.50
2019-03-16T09:00:47.240Z,11.50
2019-03-16T09:03:14.524Z,11.50
2019-03-16T09:05:41.788Z,11.50
2019-03-16T09:08:09.069Z,11.50
2019-03-16T09:10:36.363Z,11.50
2019-03-16T09:13:03.697Z,11.50
2019-03-16T09:15:31.047Z,11.50
2019-03-16T09:17:58.359Z,11.50
2019-03-16T09:20:25.843Z,11.60
2019-03-16T09:22:53.152Z,11.50
2019-03-16T09:25:20.520Z,11.60
2019-03-16T09:27:48.107Z,11.60
2019-03-16T09:30:15.695Z,11.70
2019-03-16T09:32:43.123Z,11.80
2019-03-16T09:35:10.674Z,12.00
2019-03-16T09:37:38.406Z,12.20
2019-03-16T09:40:05.992Z,12.20
2019-03-16T09:42:33.307Z,12.60
2019-03-16T09:45:00.802Z,13.00
2019-03-16T09:47:29.476Z,13.00
2019-03-16T09:49:58.610Z,12.90
2019-03-16T09:52:26.200Z,12.80
2019-03-16T09:54:56.411Z,12.80
2019-03-16T09:57:33.797Z,13.00
2019-03-16T10:00:04.562Z,12.80
2019-03-16T10:02:31.992Z,12.60
2019-03-16T10:05:02.286Z,12.50
2019-03-16T10:07:29.752Z,12.50
2019-03-16T10:09:57.582Z,12.50
2019-03-16T10:12:25.308Z,12.50
2019-03-16T10:14:58.860Z,12.50
2019-03-16T10:17:29.210Z,12.40
2019-03-16T10:19:57.128Z,12.40
2019-03-16T10:22:24.516Z,12.40
2019-03-16T10:24:52.192Z,12.40
2019-03-16T10:27:19.617Z,12.20
2019-03-16T10:29:50.072Z,12.10
2019-03-16T10:32:20.887Z,12.10
2019-03-16T10:34:55.322Z,12.10
2019-03-16T10:37:22.952Z,12.20
2019-03-16T10:39:50.450Z,12.20
2019-03-16T10:42:17.883Z,12.30
2019-03-16T10:44:45.274Z,12.30
2019-03-16T10:47:12.707Z,12.50
2019-03-16T10:49:40.168Z,12.50
2019-03-16T10:52:07.488Z,12.30
2019-03-16T10:54:34.799Z,12.40
2019-03-16T10:57:04.462Z,12.20
2019-03-16T10:59:32.576Z,12.50
2019-03-16T11:02:01.425Z,12.60
2019-03-16T11:04:31.053Z,12.70
2019-03-16T11:07:03.821Z,12.60
2019-03-16T11:09:32.773Z,12.70
2019-03-16T11:12:00.467Z,12.70
2019-03-16T11:14:28.146Z,12.50
2019-03-16T11:16:55.504Z,12.60
2019-03-16T11:19:22.750Z,12.70
2019-03-16T11:21:50.775Z,12.70
2019-03-16T11:24:18.191Z,12.70
2019-03-16T11:26:45.448Z,12.60
2019-03-16T11:29:12.671Z,12.60
2019-03-16T11:31:40.008Z,12.80
2019-03-16T11:34:07.271Z,12.90
2019-03-16T11:36:34.527Z,13.00
2019-03-16T11:39:01.804Z,12.90
2019-03-16T11:41:29.304Z,12.80
2019-03-16T11:43:56.631Z,12.50
2019-03-16T11:46:23.875Z,12.30
2019-03-16T11:48:51.129Z,12.20
2019-03-16T11:51:18.479Z,12.30
2019-03-16T11:53:46.156Z,12.40
2019-03-16T11:56:18.341Z,12.40
2019-03-16T11:58:42.789Z,12.90
2019-03-16T12:01:10.094Z,13.00
2019-03-16T12:03:37.344Z,13.30
2019-03-16T12:06:04.789Z,13.50
2019-03-16T12:08:32.169Z,13.50
2019-03-16T12:10:59.404Z,13.50
2019-03-16T12:13:26.676Z,13.40
2019-03-16T12:15:54.006Z,13.30
2019-03-16T12:18:21.368Z,13.40
2019-03-16T12:20:48.796Z,13.80
2019-03-16T12:23:16.063Z,14.10
2019-03-16T12:25:44.488Z,14.00
2019-03-16T12:28:11.784Z,13.70
2019-03-16T12:30:39.585Z,13.50
2019-03-16T12:33:06.921Z,13.10
2019-03-16T12:35:34.397Z,13.20
2019-03-16T12:38:01.623Z,13.10
2019-03-16T12:40:28.928Z,13.00
2019-03-16T12:42:56.322Z,12.90
2019-03-16T12:45:23.636Z,12.80
2019-03-16T12:47:50.881Z,12.50
2019-03-16T12:50:18.238Z,12.60
2019-03-16T12:52:45.611Z,12.80
2019-03-16T12:55:12.967Z,12.90
2019-03-16T12:57:40.324Z,12.80
2019-03-16T13:00:09.479Z,12.60
2019-03-16T13:02:36.772Z,12.40
2019-03-16T13:05:04.375Z,12.20
2019-03-16T13:07:31.672Z,12.00
2019-03-16T13:09:59.006Z,12.20
2019-03-16T13:12:26.259Z,12.20
2019-03-16T13:14:53.549Z,12.10
2019-03-16T13:17:20.883Z,12.20
2019-03-16T13:19:48.148Z,12.10
2019-03-16T13:22:15.389Z,12.20
2019-03-16T13:24:42.622Z,12.20
2019-03-16T13:27:10.085Z,12.00
2019-03-16T13:29:37.433Z,12.00
2019-03-16T13:32:04.672Z,12.00
2019-03-16T13:34:31.952Z,12.00
2019-03-16T13:36:59.228Z,12.00
2019-03-16T13:39:26.563Z,12.10
2019-03-16T13:41:53.906Z,12.10
2019-03-16T13:44:21.201Z,12.10
2019-03-16T13:46:48.441Z,12.20
2019-03-16T13:49:15.669Z,12.30
2019-03-16T13:51:42.967Z,12.10
2019-03-16T13:54:10.224Z,12.20
2019-03-16T13:56:37.592Z,12.20
2019-03-16T13:59:04.889Z,12.00
2019-03-16T14:01:32.590Z,12.20
2019-03-16T14:04:02.912Z,12.30
2019-03-16T14:06:29.138Z,12.20
2019-03-16T14:08:56.787Z,12.20
2019-03-16T14:11:24.917Z,12.20
2019-03-16T14:13:52.180Z,12.10
2019-03-16T14:16:19.828Z,12.10
2019-03-16T14:18:47.383Z,12.10
2019-03-16T14:21:14.758Z,12.10
2019-03-16T14:23:42.176Z,12.00
2019-03-16T14:26:09.435Z,11.80
2019-03-16T14:28:36.787Z,11.80
2019-03-16T14:31:04.163Z,11.90
2019-03-16T14:33:32.670Z,11.90
2019-03-16T14:36:00.376Z,11.80
2019-03-16T14:38:27.684Z,11.70
2019-03-16T14:40:55.676Z,11.70
2019-03-16T14:43:22.963Z,11.70
2019-03-16T14:45:50.216Z,11.70
2019-03-16T14:48:17.471Z,11.70
2019-03-16T14:50:44.819Z,11.80
2019-03-16T14:53:12.096Z,11.90
2019-03-16T14:55:39.345Z,12.10
2019-03-16T14:58:06.621Z,12.00
2019-03-16T15:00:38.804Z,12.00
2019-03-16T15:03:03.147Z,12.10
2019-03-16T15:05:30.395Z,12.10
2019-03-16T15:07:57.665Z,12.40
2019-03-16T15:10:24.937Z,12.20
2019-03-16T15:12:52.349Z,12.30
2019-03-16T15:15:19.639Z,12.00
2019-03-16T15:17:46.916Z,12.20
2019-03-16T15:20:14.186Z,12.20
2019-03-16T15:22:41.543Z,12.20
2019-03-16T15:25:11.249Z,12.10
2019-03-16T15:27:38.051Z,12.20
2019-03-16T15:30:07.427Z,12.00
2019-03-16T15:32:34.764Z,12.00
2019-03-16T15:35:02.041Z,11.90
2019-03-16T15:37:29.304Z,11.90
2019-03-16T15:39:56.554Z,11.80
2019-03-16T15:42:23.791Z,11.80
2019-03-16T15:44:51.113Z,11.90
2019-03-16T15:47:18.385Z,12.00
2019-03-16T15:49:45.801Z,12.00
2019-03-16T15:52:13.850Z,11.90
2019-03-16T15:54:41.113Z,11.90
2019-03-16T15:57:08.356Z,12.00
2019-03-16T15:59:35.606Z,12.00
2019-03-16T16:02:03.043Z,11.90
2019-03-16T16:04:30.352Z,11.90
2019-03-16T16:06:57.599Z,11.80
2019-03-16T16:09:24.859Z,11.80
2019-03-16T16:11:52.176Z,11.70
2019-03-16T16:14:19.589Z,11.70
2019-03-16T16:16:47.091Z,11.70
2019-03-16T16:19:14.408Z,11.70
2019-03-16T16:21:41.811Z,11.70
2019-03-16T16:24:09.053Z,11.80
2019-03-16T16:26:36.338Z,11.70
2019-03-16T16:29:03.722Z,11.60
2019-03-16T16:31:30.971Z,11.60
2019-03-16T16:33:58.703Z,11.60
2019-03-16T16:36:26.041Z,11.60
2019-03-16T16:38:53.344Z,11.60
2019-03-16T16:41:20.646Z,11.50
2019-03-16T16:43:48.008Z,11.60
2019-03-16T16:46:15.244Z,11.70
2019-03-16T16:48:42.475Z,11.50
2019-03-16T16:51:09.747Z,11.50
2019-03-16T16:53:37.003Z,11.70
2019-03-16T16:56:04.282Z,11.60
2019-03-16T16:58:31.556Z,11.50
2019-03-16T17:00:58.805Z,11.60
2019-03-16T17:03:26.089Z,11.50
2019-03-16T17:05:59.180Z,11.40
2019-03-16T17:08:26.441Z,11.60
2019-03-16T17:10:53.815Z,11.50
2019-03-16T17:13:21.124Z,11.50
2019-03-16T17:15:48.376Z,11.40
2019-03-16T17:18:15.666Z,11.30
2019-03-16T17:20:42.962Z,11.30
2019-03-16T17:23:16.351Z,11.30
2019-03-16T17:25:43.629Z,11.20
2019-03-16T17:28:10.865Z,11.30
2019-03-16T17:30:38.222Z,11.20
2019-03-16T17:33:05.470Z,11.30
2019-03-16T17:35:32.959Z,11.30
2019-03-16T17:38:00.569Z,11.20
2019-03-16T17:40:27.888Z,11.20
2019-03-16T17:42:55.206Z,11.10
2019-03-16T17:45:22.476Z,11.20
2019-03-16T17:47:49.727Z,11.20
2019-03-16T17:50:17.212Z,11.10
2019-03-16T17:52:44.537Z,11.10
2019-03-16T17:55:11.812Z,11.10
2019-03-16T17:57:39.093Z,11.10
2019-03-16T18:00:07.465Z,11.10
2019-03-16T18:02:34.882Z,11.10
2019-03-16T18:05:02.127Z,11.10
2019-03-16T18:07:29.414Z,11.10
2019-03-16T18:09:56.780Z,11.10
2019-03-16T18:12:24.001Z,11.10
2019-03-16T18:14:51.272Z,11.10
2019-03-16T18:17:18.624Z,11.20
2019-03-16T18:19:45.863Z,11.00
2019-03-16T18:22:13.124Z,11.10
2019-03-16T18:24:40.438Z,11.00
2019-03-16T18:27:07.687Z,11.00
2019-03-16T18:29:35.043Z,10.90
2019-03-16T18:32:07.966Z,10.80
2019-03-16T18:34:31.501Z,11.00
2019-03-16T18:36:58.775Z,11.00
2019-03-16T18:39:26.129Z,10.80
2019-03-16T18:41:53.509Z,10.80
2019-03-16T18:44:20.788Z,10.90
2019-03-16T18:46:48.027Z,10.90
2019-03-16T18:49:15.327Z,10.90
2019-03-16T18:51:42.701Z,10.90
2019-03-16T18:54:10.161Z,10.90
2019-03-16T18:56:37.700Z,10.70
2019-03-16T18:59:10.747Z,10.70
2019-03-16T19:01:38.232Z,10.70
2019-03-16T19:04:05.645Z,10.60
2019-03-16T19:06:32.914Z,10.70
2019-03-16T19:09:00.149Z,10.60
2019-03-16T19:11:27.405Z,10.50
2019-03-16T19:13:54.676Z,10.50
2019-03-16T19:16:21.975Z,10.40
2019-03-16T19:18:49.195Z,10.20
2019-03-16T19:21:16.560Z,10.30
2019-03-16T19:23:43.996Z,10.20
2019-03-16T19:26:11.347Z,10.30
2019-03-16T19:28:39.004Z,10.20
2019-03-16T19:31:06.285Z,10.20
2019-03-16T19:33:33.544Z,10.20
2019-03-16T19:36:00.780Z,10.10
2019-03-16T19:38:28.019Z,10.10
2019-03-16T19:40:55.307Z,10.00
2019-03-16T19:43:22.602Z,10.00
2019-03-16T19:45:49.859Z,10.00
2019-03-16T19:48:17.108Z,10.00
2019-03-16T19:50:44.462Z,9.80
2019-03-16T19:53:11.724Z,9.80
2019-03-16T19:55:39.019Z,9.80
2019-03-16T19:58:06.262Z,9.80
2019-03-16T20:00:33.536Z,9.80
2019-03-16T20:03:00.788Z,9.70
2019-03-16T20:05:28.047Z,9.70
2019-03-16T20:07:55.299Z,9.70
2019-03-16T20:10:22.564Z,9.60
2019-03-16T20:12:52.853Z,9.60
2019-03-16T20:15:19.099Z,9.60
2019-03-16T20:17:46.463Z,9.50
2019-03-16T20:20:13.705Z,9.50
2019-03-16T20:22:41.054Z,9.50
2019-03-16T20:25:08.518Z,9.50
2019-03-16T20:27:35.891Z,9.50
2019-03-16T20:30:04.159Z,9.50
2019-03-16T20:32:31.435Z,9.40
2019-03-16T20:34:58.695Z,9.30
2019-03-16T20:37:25.939Z,9.30
2019-03-16T20:39:53.366Z,9.30
2019-03-16T20:42:20.673Z,9.20
2019-03-16T20:44:50.744Z,9.30
2019-03-16T20:47:18.153Z,9.30
2019-03-16T20:49:45.573Z,9.30
2019-03-16T20:52:12.881Z,9.20
2019-03-16T20:54:40.224Z,9.10
2019-03-16T20:57:07.494Z,9.20
2019-03-16T20:59:34.832Z,9.20
2019-03-16T21:02:02.073Z,9.20
2019-03-16T21:04:29.315Z,9.10
2019-03-16T21:06:57.484Z,9.10
2019-03-16T21:09:24.944Z,9.10
2019-03-16T21:11:52.519Z,9.10
2019-03-16T21:14:20.302Z,9.00
2019-03-16T21:16:47.609Z,9.00
2019-03-16T21:19:14.916Z,8.90
2019-03-16T21:21:42.323Z,8.80
2019-03-16T21:24:09.847Z,8.90
2019-03-16T21:26:37.659Z,8.90
2019-03-16T21:29:05.009Z,8.80
2019-03-16T21:31:32.456Z,8.90
2019-03-16T21:33:59.860Z,8.90
2019-03-16T21:36:27.280Z,9.00
2019-03-16T21:38:54.627Z,8.90
2019-03-16T21:41:21.913Z,8.90
2019-03-16T21:43:49.175Z,8.90
2019-03-16T21:46:16.635Z,8.90
2019-03-16T21:48:44.365Z,8.90
2019-03-16T21:51:11.708Z,8.80
2019-03-16T21:53:38.953Z,8.90
2019-03-16T21:56:06.668Z,8.80
2019-03-16T21:58:33.959Z,8.70
2019-03-16T22:01:01.220Z,8.60
2019-03-16T22:03:28.455Z,8.70
2019-03-16T22:05:55.729Z,8.80
2019-03-16T22:08:22.991Z,8.70
2019-03-16T22:10:50.224Z,8.90
2019-03-16T22:13:17.477Z,8.90
2019-03-16T22:15:44.711Z,8.90
2019-03-16T22:18:11.959Z,9.00
2019-03-16T22:20:39.263Z,9.00
2019-03-16T22:23:06.610Z,9.00
2019-03-16T22:25:33.899Z,8.90
2019-03-16T22:28:01.133Z,9.00
2019-03-16T22:30:28.387Z,9.00
2019-03-16T22:32:55.644Z,9.00
2019-03-16T22:35:22.883Z,9.00
2019-03-16T22:37:50.119Z,9.00
2019-03-16T22:40:17.456Z,9.10
2019-03-16T22:42:44.706Z,9.00
2019-03-16T22:45:12.015Z,9.10
2019-03-16T22:47:39.322Z,9.00
2019-03-16T22:50:07.064Z,8.90
2019-03-16T22:52:34.294Z,9.00
2019-03-16T22:55:01.523Z,8.90
2019-03-16T22:57:28.834Z,8.90
2019-03-16T22:59:56.072Z,8.90
2019-03-16T23:02:23.342Z,8.90
2019-03-16T23:04:50.677Z,8.90
2019-03-16T23:07:17.987Z,9.00
2019-03-16T23:09:45.416Z,9.00
2019-03-16T23:12:13.002Z,8.90
2019-03-16T23:14:40.326Z,8.90
2019-03-16T23:17:07.584Z,8.90
2019-03-16T23:19:34.845Z,8.90
2019-03-16T23:22:02.099Z,8.90
2019-03-16T23:24:29.323Z,8.80
2019-03-16T23:26:56.576Z,8.70
2019-03-16T23:29:23.831Z,8.80
2019-03-16T23:31:51.107Z,8.70
2019-03-16T23:34:19.532Z,8.70
2019-03-16T23:36:47.008Z,8.60
2019-03-16T23:39:14.243Z,8.60
2019-03-16T23:41:41.537Z,8.60
2019-03-16T23:44:08.767Z,8.50
2019-03-16T23:46:36.016Z,8.60
2019-03-16T23:49:03.267Z,8.40
2019-03-16T23:51:30.492Z,8.40
2019-03-16T23:53:57.763Z,8.50
2019-03-16T23:56:25.083Z,8.50
2019-03-16T23:58:52.319Z,8.30
